sensor_id;sensor_type;location;lat;lon;timestamp;pressure;altitude;pressure_sealevel;temperature;humidity
18678;BME280;9469;51.114;13.914;2023-01-19T00:00:34;97522.06;;;-0.77;100.00
18678;BME280;9469;51.114;13.914;2023-01-19T00:05:39;97521.13;;;-0.55;100.00
18678;BME280;9469;51.114;13.914;2023-01-19T00:10:46;97529.00;;;-0.45;100.00
18678;BME280;9469;51.114;13.914;2023-01-19T00:15:54;97523.97;;;-0.52;100.00
18678;BME280;9469;51.114;13.914;2023-01-19T00:20:59;97518.72;;;-0.77;100.00
18678;BME280;9469;51.114;13.914;2023-01-19T00:26:05;97533.66;;;-0.57;100.00
18678;BME280;9469;51.114;13.914;2023-01-19T00:31:14;97543.22;;;-0.78;100.00
18678;BME280;9469;51.114;13.914;2023-01-19T00:36:22;97555.44;;;-1.35;100.00
18678;BME280;9469;51.114;13.914;2023-01-19T00:41:27;97561.84;;;-1.53;100.00
18678;BME280;9469;51.114;13.914;2023-01-19T00:46:46;97556.22;;;-1.72;100.00
18678;BME280;9469;51.114;13.914;2023-01-19T00:51:51;97566.09;;;-1.79;100.00
18678;BME280;9469;51.114;13.914;2023-01-19T00:56:56;97579.72;;;-1.98;100.00
18678;BME280;9469;51.114;13.914;2023-01-19T01:02:04;97582.72;;;-2.11;100.00
18678;BME280;9469;51.114;13.914;2023-01-19T01:07:09;97583.66;;;-2.23;100.00
18678;BME280;9469;51.114;13.914;2023-01-19T01:12:14;97572.72;;;-2.25;100.00
18678;BME280;9469;51.114;13.914;2023-01-19T01:17:22;97581.72;;;-2.10;100.00
18678;BME280;9469;51.114;13.914;2023-01-19T01:22:27;97592.78;;;-2.47;100.00
18678;BME280;9469;51.114;13.914;2023-01-19T01:27:32;97599.63;;;-2.62;100.00
18678;BME280;9469;51.114;13.914;2023-01-19T01:32:40;97604.66;;;-2.56;100.00
18678;BME280;9469;51.114;13.914;2023-01-19T01:37:45;97601.13;;;-2.66;100.00
18678;BME280;9469;51.114;13.914;2023-01-19T01:42:50;97609.19;;;-2.68;100.00
18678;BME280;9469;51.114;13.914;2023-01-19T01:48:01;97600.94;;;-2.81;100.00
18678;BME280;9469;51.114;13.914;2023-01-19T01:53:09;97612.16;;;-2.81;100.00
18678;BME280;9469;51.114;13.914;2023-01-19T01:58:15;97618.50;;;-2.72;100.00
18678;BME280;9469;51.114;13.914;2023-01-19T02:03:24;97622.75;;;-2.87;100.00
18678;BME280;9469;51.114;13.914;2023-01-19T02:08:33;97621.03;;;-2.99;100.00
18678;BME280;9469;51.114;13.914;2023-01-19T02:13:53;97616.47;;;-3.08;100.00
18678;BME280;9469;51.114;13.914;2023-01-19T02:19:01;97622.47;;;-3.08;100.00
18678;BME280;9469;51.114;13.914;2023-01-19T02:24:08;97617.75;;;-3.27;100.00
18678;BME280;9469;51.114;13.914;2023-01-19T02:29:17;97616.34;;;-3.51;100.00
18678;BME280;9469;51.114;13.914;2023-01-19T02:34:23;97628.25;;;-3.55;100.00
18678;BME280;9469;51.114;13.914;2023-01-19T02:39:34;97632.72;;;-3.68;100.00
18678;BME280;9469;51.114;13.914;2023-01-19T02:44:43;97637.72;;;-3.78;100.00
18678;BME280;9469;51.114;13.914;2023-01-19T02:49:54;97635.56;;;-3.69;100.00
18678;BME280;9469;51.114;13.914;2023-01-19T02:55:09;97631.94;;;-3.51;100.00
18678;BME280;9469;51.114;13.914;2023-01-19T03:00:26;97642.56;;;-3.36;100.00
18678;BME280;9469;51.114;13.914;2023-01-19T03:05:50;97645.31;;;-3.59;100.00
18678;BME280;9469;51.114;13.914;2023-01-19T03:11:02;97646.94;;;-3.70;100.00
18678;BME280;9469;51.114;13.914;2023-01-19T03:16:13;97653.47;;;-3.84;100.00
18678;BME280;9469;51.114;13.914;2023-01-19T03:21:24;97665.19;;;-3.98;100.00
18678;BME280;9469;51.114;13.914;2023-01-19T03:26:37;97672.31;;;-4.45;100.00
18678;BME280;9469;51.114;13.914;2023-01-19T03:31:46;97671.56;;;-4.69;100.00
18678;BME280;9469;51.114;13.914;2023-01-19T03:36:55;97669.13;;;-4.87;100.00
18678;BME280;9469;51.114;13.914;2023-01-19T03:42:08;97683.53;;;-4.79;100.00
18678;BME280;9469;51.114;13.914;2023-01-19T03:47:16;97674.63;;;-4.95;100.00
18678;BME280;9469;51.114;13.914;2023-01-19T03:52:27;97683.56;;;-4.91;100.00
18678;BME280;9469;51.114;13.914;2023-01-19T03:57:36;97683.19;;;-4.94;100.00
18678;BME280;9469;51.114;13.914;2023-01-19T04:02:41;97696.03;;;-4.99;100.00
18678;BME280;9469;51.114;13.914;2023-01-19T04:07:47;97690.53;;;-5.15;100.00
18678;BME280;9469;51.114;13.914;2023-01-19T04:12:59;97688.25;;;-5.11;100.00
18678;BME280;9469;51.114;13.914;2023-01-19T04:18:04;97700.66;;;-5.01;100.00
18678;BME280;9469;51.114;13.914;2023-01-19T04:23:09;97689.63;;;-5.20;100.00
18678;BME280;9469;51.114;13.914;2023-01-19T04:28:17;97683.56;;;-4.91;100.00
18678;BME280;9469;51.114;13.914;2023-01-19T04:33:22;97685.09;;;-5.13;100.00
18678;BME280;9469;51.114;13.914;2023-01-19T04:38:27;97679.72;;;-5.12;100.00
18678;BME280;9469;51.114;13.914;2023-01-19T04:43:35;97679.03;;;-5.19;100.00
18678;BME280;9469;51.114;13.914;2023-01-19T04:48:40;97680.84;;;-5.07;100.00
18678;BME280;9469;51.114;13.914;2023-01-19T04:53:46;97682.31;;;-5.00;100.00
18678;BME280;9469;51.114;13.914;2023-01-19T04:58:54;97686.59;;;-5.05;100.00
18678;BME280;9469;51.114;13.914;2023-01-19T05:03:59;97680.28;;;-5.10;100.00
18678;BME280;9469;51.114;13.914;2023-01-19T05:09:06;97687.13;;;-5.27;100.00
18678;BME280;9469;51.114;13.914;2023-01-19T05:14:17;97680.81;;;-5.31;100.00
18678;BME280;9469;51.114;13.914;2023-01-19T05:19:22;97677.78;;;-5.28;100.00
18678;BME280;9469;51.114;13.914;2023-01-19T05:24:27;97676.19;;;-5.29;100.00
18678;BME280;9469;51.114;13.914;2023-01-19T05:29:35;97683.06;;;-5.34;100.00
18678;BME280;9469;51.114;13.914;2023-01-19T05:34:40;97678.09;;;-5.36;100.00
18678;BME280;9469;51.114;13.914;2023-01-19T05:39:45;97675.44;;;-5.29;100.00
18678;BME280;9469;51.114;13.914;2023-01-19T05:44:53;97682.16;;;-5.40;100.00
18678;BME280;9469;51.114;13.914;2023-01-19T05:50:00;97680.19;;;-5.56;100.00
18678;BME280;9469;51.114;13.914;2023-01-19T05:55:06;97683.78;;;-5.68;100.00
18678;BME280;9469;51.114;13.914;2023-01-19T06:00:15;97687.16;;;-5.68;100.00
18678;BME280;9469;51.114;13.914;2023-01-19T06:05:28;97686.59;;;-5.70;100.00
18678;BME280;9469;51.114;13.914;2023-01-19T06:10:33;97695.66;;;-5.38;100.00
18678;BME280;9469;51.114;13.914;2023-01-19T06:15:40;97698.91;;;-5.54;100.00
18678;BME280;9469;51.114;13.914;2023-01-19T06:20:46;97694.56;;;-5.71;100.00
18678;BME280;9469;51.114;13.914;2023-01-19T06:25:52;97707.09;;;-5.68;100.00
18678;BME280;9469;51.114;13.914;2023-01-19T06:31:01;97723.16;;;-5.78;100.00
18678;BME280;9469;51.114;13.914;2023-01-19T06:36:06;97734.66;;;-5.74;100.00
18678;BME280;9469;51.114;13.914;2023-01-19T06:41:11;97745.81;;;-5.73;100.00
18678;BME280;9469;51.114;13.914;2023-01-19T06:46:19;97742.53;;;-5.81;100.00
18678;BME280;9469;51.114;13.914;2023-01-19T06:51:24;97751.47;;;-5.65;100.00
18678;BME280;9469;51.114;13.914;2023-01-19T06:56:29;97748.25;;;-5.49;100.00
18678;BME280;9469;51.114;13.914;2023-01-19T07:01:36;97751.03;;;-5.62;100.00
18678;BME280;9469;51.114;13.914;2023-01-19T07:06:41;97762.59;;;-5.76;100.00
18678;BME280;9469;51.114;13.914;2023-01-19T07:11:47;97764.56;;;-5.60;100.00
18678;BME280;9469;51.114;13.914;2023-01-19T07:16:55;97762.72;;;-5.41;100.00
18678;BME280;9469;51.114;13.914;2023-01-19T07:22:05;97761.03;;;-5.36;100.00
18678;BME280;9469;51.114;13.914;2023-01-19T07:27:09;97765.47;;;-5.25;100.00
18678;BME280;9469;51.114;13.914;2023-01-19T07:32:20;97773.41;;;-5.38;100.00
18678;BME280;9469;51.114;13.914;2023-01-19T07:37:24;97774.59;;;-5.22;100.00
18678;BME280;9469;51.114;13.914;2023-01-19T07:42:31;97765.91;;;-5.28;100.00
18678;BME280;9469;51.114;13.914;2023-01-19T07:47:55;97788.31;;;-5.33;100.00
18678;BME280;9469;51.114;13.914;2023-01-19T07:53:08;97770.91;;;-5.15;100.00
18678;BME280;9469;51.114;13.914;2023-01-19T07:58:13;97786.03;;;-4.88;100.00
18678;BME280;9469;51.114;13.914;2023-01-19T08:03:20;97787.28;;;-4.68;100.00
18678;BME280;9469;51.114;13.914;2023-01-19T08:08:25;97785.38;;;-4.26;100.00
18678;BME280;9469;51.114;13.914;2023-01-19T08:13:32;97787.97;;;-4.38;100.00
18678;BME280;9469;51.114;13.914;2023-01-19T08:18:41;97798.03;;;-4.41;100.00
18678;BME280;9469;51.114;13.914;2023-01-19T08:23:51;97800.84;;;-4.31;100.00
18678;BME280;9469;51.114;13.914;2023-01-19T08:29:01;97803.41;;;-4.08;100.00
18678;BME280;9469;51.114;13.914;2023-01-19T08:34:09;97802.34;;;-3.84;100.00
18678;BME280;9469;51.114;13.914;2023-01-19T08:39:16;97792.84;;;-3.50;100.00
18678;BME280;9469;51.114;13.914;2023-01-19T08:44:22;97796.06;;;-3.03;100.00
18678;BME280;9469;51.114;13.914;2023-01-19T08:49:35;97802.81;;;-2.36;100.00
18678;BME280;9469;51.114;13.914;2023-01-19T08:54:44;97801.19;;;-2.58;100.00
18678;BME280;9469;51.114;13.914;2023-01-19T08:59:55;97809.63;;;-2.68;100.00
18678;BME280;9469;51.114;13.914;2023-01-19T09:05:04;97807.19;;;-2.58;100.00
18678;BME280;9469;51.114;13.914;2023-01-19T09:10:10;97811.97;;;-2.50;100.00
18678;BME280;9469;51.114;13.914;2023-01-19T09:15:19;97805.69;;;-2.15;100.00
18678;BME280;9469;51.114;13.914;2023-01-19T09:20:36;97801.53;;;-1.73;100.00
18678;BME280;9469;51.114;13.914;2023-01-19T09:25:45;97799.38;;;-1.33;99.46
18678;BME280;9469;51.114;13.914;2023-01-19T09:30:50;97810.50;;;-0.57;98.06
18678;BME280;9469;51.114;13.914;2023-01-19T09:35:58;97802.81;;;-0.37;97.63
18678;BME280;9469;51.114;13.914;2023-01-19T09:41:13;97805.00;;;-0.19;97.49
18678;BME280;9469;51.114;13.914;2023-01-19T09:46:26;97791.31;;;0.11;97.91
18678;BME280;9469;51.114;13.914;2023-01-19T09:51:38;97799.41;;;0.09;98.73
18678;BME280;9469;51.114;13.914;2023-01-19T09:56:51;97798.19;;;0.32;97.66
18678;BME280;9469;51.114;13.914;2023-01-19T10:02:05;97799.03;;;0.42;96.85
18678;BME280;9469;51.114;13.914;2023-01-19T10:07:24;97799.34;;;0.61;96.74
18678;BME280;9469;51.114;13.914;2023-01-19T10:12:47;97795.44;;;0.73;97.05
18678;BME280;9469;51.114;13.914;2023-01-19T10:18:11;97791.53;;;0.86;94.77
18678;BME280;9469;51.114;13.914;2023-01-19T10:23:39;97797.31;;;0.98;94.83
18678;BME280;9469;51.114;13.914;2023-01-19T10:28:47;97785.28;;;0.97;95.82
18678;BME280;9469;51.114;13.914;2023-01-19T10:33:53;97786.06;;;1.23;97.47
18678;BME280;9469;51.114;13.914;2023-01-19T10:39:02;97786.06;;;1.48;95.77
18678;BME280;9469;51.114;13.914;2023-01-19T10:44:11;97784.50;;;1.47;94.54
18678;BME280;9469;51.114;13.914;2023-01-19T10:49:24;97782.63;;;1.68;94.15
18678;BME280;9469;51.114;13.914;2023-01-19T10:54:42;97775.78;;;1.77;94.45
18678;BME280;9469;51.114;13.914;2023-01-19T10:59:50;97777.75;;;2.30;92.38
18678;BME280;9469;51.114;13.914;2023-01-19T11:04:57;97775.41;;;3.16;87.48
18678;BME280;9469;51.114;13.914;2023-01-19T11:10:22;97775.16;;;3.75;85.82
18678;BME280;9469;51.114;13.914;2023-01-19T11:15:31;97779.09;;;4.86;80.62
18678;BME280;9469;51.114;13.914;2023-01-19T11:20:48;97772.13;;;4.76;79.28
18678;BME280;9469;51.114;13.914;2023-01-19T11:26:03;97764.66;;;5.80;77.41
18678;BME280;9469;51.114;13.914;2023-01-19T11:31:17;97768.31;;;5.98;76.46
18678;BME280;9469;51.114;13.914;2023-01-19T11:36:24;97768.03;;;6.40;74.26
18678;BME280;9469;51.114;13.914;2023-01-19T11:42:02;97775.97;;;6.40;72.93
18678;BME280;9469;51.114;13.914;2023-01-19T11:47:17;97779.50;;;6.85;69.83
18678;BME280;9469;51.114;13.914;2023-01-19T11:52:30;97783.28;;;6.43;70.89
18678;BME280;9469;51.114;13.914;2023-01-19T11:57:44;97783.81;;;4.04;77.11
18678;BME280;9469;51.114;13.914;2023-01-19T12:03:02;97776.47;;;3.78;80.35
18678;BME280;9469;51.114;13.914;2023-01-19T12:08:15;97777.78;;;3.75;79.87
18678;BME280;9469;51.114;13.914;2023-01-19T12:13:26;97775.44;;;4.21;79.97
18678;BME280;9469;51.114;13.914;2023-01-19T12:18:37;97778.78;;;6.16;72.33
18678;BME280;9469;51.114;13.914;2023-01-19T12:23:52;97779.03;;;4.72;76.77
18678;BME280;9469;51.114;13.914;2023-01-19T12:29:13;97779.91;;;5.19;76.90
18678;BME280;9469;51.114;13.914;2023-01-19T12:34:28;97770.28;;;5.92;76.22
18678;BME280;9469;51.114;13.914;2023-01-19T12:39:46;97767.88;;;5.31;74.43
18678;BME280;9469;51.114;13.914;2023-01-19T12:45:04;97770.75;;;4.79;76.83
18678;BME280;9469;51.114;13.914;2023-01-19T12:50:16;97767.84;;;4.80;76.60
18678;BME280;9469;51.114;13.914;2023-01-19T12:55:26;97765.56;;;5.25;75.34
18678;BME280;9469;51.114;13.914;2023-01-19T13:00:37;97757.16;;;4.72;76.72
18678;BME280;9469;51.114;13.914;2023-01-19T13:05:50;97758.22;;;5.08;76.23
18678;BME280;9469;51.114;13.914;2023-01-19T13:11:20;97756.16;;;4.86;76.01
18678;BME280;9469;51.114;13.914;2023-01-19T13:27:45;97733.22;;;5.05;75.13
18678;BME280;9469;51.114;13.914;2023-01-19T13:32:51;97731.22;;;5.75;75.83
18678;BME280;9469;51.114;13.914;2023-01-19T13:37:57;97731.38;;;5.65;76.34
18678;BME280;9469;51.114;13.914;2023-01-19T13:43:15;97737.41;;;5.98;77.29
18678;BME280;9469;51.114;13.914;2023-01-19T13:48:26;97730.28;;;6.12;76.38
18678;BME280;9469;51.114;13.914;2023-01-19T13:53:32;97732.53;;;5.92;75.82
18678;BME280;9469;51.114;13.914;2023-01-19T13:58:40;97738.75;;;6.86;73.35
18678;BME280;9469;51.114;13.914;2023-01-19T14:03:47;97739.59;;;5.64;78.65
18678;BME280;9469;51.114;13.914;2023-01-19T14:09:12;97746.28;;;5.43;79.01
18678;BME280;9469;51.114;13.914;2023-01-19T14:14:24;97758.56;;;5.01;81.41
18678;BME280;9469;51.114;13.914;2023-01-19T14:19:50;97762.34;;;4.58;81.80
18678;BME280;9469;51.114;13.914;2023-01-19T14:25:26;97759.72;;;4.16;83.08
18678;BME280;9469;51.114;13.914;2023-01-19T14:30:33;97761.81;;;3.67;87.31
18678;BME280;9469;51.114;13.914;2023-01-19T14:35:39;97751.03;;;3.92;86.45
18678;BME280;9469;51.114;13.914;2023-01-19T14:40:52;97755.56;;;4.10;85.16
18678;BME280;9469;51.114;13.914;2023-01-19T14:46:23;97755.91;;;3.80;87.31
18678;BME280;9469;51.114;13.914;2023-01-19T14:51:31;97759.44;;;3.94;88.33
18678;BME280;9469;51.114;13.914;2023-01-19T14:56:37;97761.47;;;4.02;87.51
18678;BME280;9469;51.114;13.914;2023-01-19T15:01:45;97767.88;;;4.14;88.02
18678;BME280;9469;51.114;13.914;2023-01-19T15:06:53;97774.66;;;3.97;88.83
18678;BME280;9469;51.114;13.914;2023-01-19T15:12:02;97771.84;;;4.12;88.50
18678;BME280;9469;51.114;13.914;2023-01-19T15:17:14;97777.34;;;3.68;90.25
18678;BME280;9469;51.114;13.914;2023-01-19T15:22:26;97779.88;;;3.49;89.86
18678;BME280;9469;51.114;13.914;2023-01-19T15:27:31;97782.19;;;3.22;91.90
18678;BME280;9469;51.114;13.914;2023-01-19T15:32:40;97786.44;;;3.18;91.31
18678;BME280;9469;51.114;13.914;2023-01-19T15:37:47;97796.78;;;3.00;91.64
18678;BME280;9469;51.114;13.914;2023-01-19T15:42:54;97796.13;;;3.23;91.34
18678;BME280;9469;51.114;13.914;2023-01-19T15:48:04;97809.47;;;2.34;93.81
18678;BME280;9469;51.114;13.914;2023-01-19T15:53:14;97819.38;;;2.52;94.84
18678;BME280;9469;51.114;13.914;2023-01-19T15:58:20;97821.13;;;2.07;96.28
18678;BME280;9469;51.114;13.914;2023-01-19T16:03:27;97831.38;;;1.84;98.87
18678;BME280;9469;51.114;13.914;2023-01-19T16:08:37;97823.75;;;1.92;97.18
18678;BME280;9469;51.114;13.914;2023-01-19T16:13:43;97831.84;;;2.11;96.54
18678;BME280;9469;51.114;13.914;2023-01-19T16:18:52;97837.44;;;2.68;93.11
18678;BME280;9469;51.114;13.914;2023-01-19T16:24:00;97829.34;;;2.55;92.14
18678;BME280;9469;51.114;13.914;2023-01-19T16:29:12;97841.16;;;2.52;93.14
18678;BME280;9469;51.114;13.914;2023-01-19T16:34:21;97839.34;;;2.53;92.50
18678;BME280;9469;51.114;13.914;2023-01-19T16:39:40;97849.88;;;2.38;92.85
18678;BME280;9469;51.114;13.914;2023-01-19T16:44:46;97847.47;;;2.51;92.05
18678;BME280;9469;51.114;13.914;2023-01-19T16:50:00;97858.34;;;2.09;91.55
18678;BME280;9469;51.114;13.914;2023-01-19T16:55:11;97865.66;;;2.33;90.81
18678;BME280;9469;51.114;13.914;2023-01-19T17:00:27;97866.69;;;2.37;88.57
18678;BME280;9469;51.114;13.914;2023-01-19T17:05:50;97868.91;;;1.69;89.11
18678;BME280;9469;51.114;13.914;2023-01-19T17:10:56;97860.19;;;2.04;88.88
18678;BME280;9469;51.114;13.914;2023-01-19T17:16:08;97877.19;;;2.27;89.06
18678;BME280;9469;51.114;13.914;2023-01-19T17:21:17;97869.91;;;2.03;89.37
18678;BME280;9469;51.114;13.914;2023-01-19T17:26:23;97877.50;;;2.10;88.84
18678;BME280;9469;51.114;13.914;2023-01-19T17:31:31;97889.88;;;1.89;90.61
18678;BME280;9469;51.114;13.914;2023-01-19T17:36:42;97895.03;;;2.25;87.21
18678;BME280;9469;51.114;13.914;2023-01-19T17:41:47;97894.00;;;2.10;87.51
18678;BME280;9469;51.114;13.914;2023-01-19T17:46:52;97889.84;;;2.04;86.50
18678;BME280;9469;51.114;13.914;2023-01-19T17:52:06;97894.31;;;1.99;86.63
18678;BME280;9469;51.114;13.914;2023-01-19T17:57:11;97895.31;;;2.13;86.81
18678;BME280;9469;51.114;13.914;2023-01-19T18:02:16;97903.47;;;2.16;86.53
18678;BME280;9469;51.114;13.914;2023-01-19T18:07:28;97896.91;;;2.19;84.97
18678;BME280;9469;51.114;13.914;2023-01-19T18:12:33;97896.16;;;2.03;85.99
18678;BME280;9469;51.114;13.914;2023-01-19T18:17:39;97899.28;;;2.00;86.51
18678;BME280;9469;51.114;13.914;2023-01-19T18:22:50;97901.13;;;2.05;86.51
18678;BME280;9469;51.114;13.914;2023-01-19T18:27:56;97909.00;;;1.90;86.57
18678;BME280;9469;51.114;13.914;2023-01-19T18:33:17;97906.63;;;1.88;86.45
18678;BME280;9469;51.114;13.914;2023-01-19T18:38:28;97918.44;;;1.91;86.63
18678;BME280;9469;51.114;13.914;2023-01-19T18:43:36;97916.88;;;1.80;87.60
18678;BME280;9469;51.114;13.914;2023-01-19T18:48:42;97923.94;;;2.09;86.52
18678;BME280;9469;51.114;13.914;2023-01-19T18:53:54;97932.09;;;2.08;87.46
18678;BME280;9469;51.114;13.914;2023-01-19T18:59:02;97934.94;;;2.16;86.19
18678;BME280;9469;51.114;13.914;2023-01-19T19:04:14;97934.69;;;2.23;86.20
18678;BME280;9469;51.114;13.914;2023-01-19T19:09:23;97932.56;;;2.25;85.67
18678;BME280;9469;51.114;13.914;2023-01-19T19:14:35;97939.16;;;2.12;85.79
18678;BME280;9469;51.114;13.914;2023-01-19T19:19:44;97941.78;;;2.07;86.37
18678;BME280;9469;51.114;13.914;2023-01-19T19:24:55;97947.53;;;1.64;89.23
18678;BME280;9469;51.114;13.914;2023-01-19T19:30:08;97947.94;;;1.11;92.57
18678;BME280;9469;51.114;13.914;2023-01-19T19:35:14;97947.16;;;1.10;94.23
18678;BME280;9469;51.114;13.914;2023-01-19T19:40:29;97951.84;;;1.03;94.76
18678;BME280;9469;51.114;13.914;2023-01-19T19:45:36;97949.94;;;0.89;95.65
18678;BME280;9469;51.114;13.914;2023-01-19T19:50:42;97962.50;;;0.87;97.42
18678;BME280;9469;51.114;13.914;2023-01-19T19:55:59;97968.56;;;0.40;100.00
18678;BME280;9469;51.114;13.914;2023-01-19T20:01:15;97973.47;;;0.37;100.00
18678;BME280;9469;51.114;13.914;2023-01-19T20:06:25;97964.47;;;0.18;100.00
18678;BME280;9469;51.114;13.914;2023-01-19T20:11:41;97956.09;;;0.16;100.00
18678;BME280;9469;51.114;13.914;2023-01-19T20:16:52;97965.81;;;0.20;100.00
18678;BME280;9469;51.114;13.914;2023-01-19T20:21:58;97969.53;;;0.29;100.00
18678;BME280;9469;51.114;13.914;2023-01-19T20:27:07;97985.59;;;0.48;100.00
18678;BME280;9469;51.114;13.914;2023-01-19T20:32:14;97998.97;;;0.51;100.00
18678;BME280;9469;51.114;13.914;2023-01-19T20:37:20;97998.97;;;0.51;100.00
18678;BME280;9469;51.114;13.914;2023-01-19T20:42:28;97987.44;;;0.11;100.00
18678;BME280;9469;51.114;13.914;2023-01-19T20:47:33;97998.84;;;0.31;100.00
18678;BME280;9469;51.114;13.914;2023-01-19T20:52:38;97987.13;;;0.44;100.00
18678;BME280;9469;51.114;13.914;2023-01-19T20:57:50;97991.56;;;0.38;100.00
18678;BME280;9469;51.114;13.914;2023-01-19T21:02:56;97991.75;;;0.32;100.00
18678;BME280;9469;51.114;13.914;2023-01-19T21:08:08;97997.19;;;0.25;100.00
18678;BME280;9469;51.114;13.914;2023-01-19T21:13:21;98010.19;;;0.47;100.00
18678;BME280;9469;51.114;13.914;2023-01-19T21:18:30;98015.03;;;0.28;100.00
18678;BME280;9469;51.114;13.914;2023-01-19T21:23:36;98019.25;;;0.34;100.00
18678;BME280;9469;51.114;13.914;2023-01-19T21:28:44;98038.19;;;0.46;100.00
18678;BME280;9469;51.114;13.914;2023-01-19T21:33:50;98028.41;;;0.37;100.00
18678;BME280;9469;51.114;13.914;2023-01-19T21:38:56;98030.75;;;0.70;100.00
18678;BME280;9469;51.114;13.914;2023-01-19T21:44:04;98042.88;;;0.86;100.00
18678;BME280;9469;51.114;13.914;2023-01-19T21:49:14;98042.59;;;0.83;100.00
18678;BME280;9469;51.114;13.914;2023-01-19T21:54:20;98046.34;;;0.97;100.00
18678;BME280;9469;51.114;13.914;2023-01-19T21:59:28;98047.03;;;0.82;100.00
18678;BME280;9469;51.114;13.914;2023-01-19T22:04:33;98059.34;;;0.82;100.00
18678;BME280;9469;51.114;13.914;2023-01-19T22:09:38;98057.16;;;0.68;100.00
18678;BME280;9469;51.114;13.914;2023-01-19T22:14:45;98054.31;;;0.75;100.00
18678;BME280;9469;51.114;13.914;2023-01-19T22:19:50;98070.50;;;0.67;100.00
18678;BME280;9469;51.114;13.914;2023-01-19T22:24:56;98076.00;;;0.65;100.00
18678;BME280;9469;51.114;13.914;2023-01-19T22:30:07;98072.81;;;0.58;100.00
18678;BME280;9469;51.114;13.914;2023-01-19T22:35:12;98070.97;;;0.59;100.00
18678;BME280;9469;51.114;13.914;2023-01-19T22:40:17;98078.94;;;0.74;100.00
18678;BME280;9469;51.114;13.914;2023-01-19T22:45:26;98071.31;;;0.72;100.00
18678;BME280;9469;51.114;13.914;2023-01-19T22:50:34;98056.75;;;0.87;100.00
18678;BME280;9469;51.114;13.914;2023-01-19T22:55:39;98069.97;;;1.02;100.00
18678;BME280;9469;51.114;13.914;2023-01-19T23:00:47;98065.38;;;1.29;100.00
18678;BME280;9469;51.114;13.914;2023-01-19T23:05:52;98061.84;;;1.03;100.00
18678;BME280;9469;51.114;13.914;2023-01-19T23:10:57;98069.44;;;1.05;100.00
18678;BME280;9469;51.114;13.914;2023-01-19T23:16:06;98066.94;;;1.30;100.00
18678;BME280;9469;51.114;13.914;2023-01-19T23:21:13;98063.03;;;1.32;100.00
18678;BME280;9469;51.114;13.914;2023-01-19T23:26:19;98075.19;;;1.02;100.00
18678;BME280;9469;51.114;13.914;2023-01-19T23:31:28;98073.03;;;0.94;100.00
18678;BME280;9469;51.114;13.914;2023-01-19T23:36:36;98069.63;;;0.88;100.00
18678;BME280;9469;51.114;13.914;2023-01-19T23:41:42;98067.78;;;0.94;100.00
18678;BME280;9469;51.114;13.914;2023-01-19T23:46:50;98060.47;;;0.96;100.00
18678;BME280;9469;51.114;13.914;2023-01-19T23:51:55;98054.59;;;1.25;100.00
18678;BME280;9469;51.114;13.914;2023-01-19T23:56:59;98059.19;;;1.65;100.00
